Time;durP1;ratioP1;P1;durP2;ratioP2;P2;SDS_P1;SDS_P2;PMS_P1;PMS_P2;Temp;Humidity;BMP_temperature;BMP_pressure;BME280_temperature;BME280_humidity;BME280_pressure;Samples;Min_cycle;Max_cycle;Signal;HPM_P1;HPM_P2
2021/05/06 00:32:58;;;;;;;13.07;3.97;;;;;;;6.98;56.72;98103.98;125521;1100;103013;-70
2021/05/06 00:35:27;;;;;;;9.53;3.47;;;;;;;6.97;56.69;98104.95;125501;1104;102989;-68
2021/05/06 00:38:02;;;;;;;12.47;3.93;;;;;;;6.94;56.77;98099.88;125522;1104;103016;-67
2021/05/06 01:04:59;;;;;;;7.90;3.83;;;;;;;6.63;57.05;98131.19;125547;1100;103019;-70
2021/05/06 01:07:42;;;;;;;12.43;3.63;;;;;;;6.64;57.26;98131.06;125468;1100;103014;-68
2021/05/06 01:10:25;;;;;;;11.83;3.65;;;;;;;6.63;57.10;98136.47;125496;1104;102990;-68
2021/05/06 01:12:52;;;;;;;10.00;4.10;;;;;;;6.61;57.15;98135.73;125540;1104;103075;-69
2021/05/06 01:15:19;;;;;;;11.55;4.50;;;;;;;6.61;57.28;98136.56;125439;1105;103024;-69
2021/05/06 01:17:50;;;;;;;17.10;5.07;;;;;;;6.61;57.40;98130.45;125538;1104;103088;-67
2021/05/06 01:20:18;;;;;;;13.03;4.97;;;;;;;6.61;57.29;98141.02;125515;1104;103079;-68
2021/05/06 01:22:46;;;;;;;12.27;4.70;;;;;;;6.60;57.23;98137.52;125538;1104;103008;-68
2021/05/06 01:25:14;;;;;;;11.93;4.83;;;;;;;6.59;57.26;98141.11;125496;1104;102993;-70
2021/05/06 01:27:57;;;;;;;15.20;5.10;;;;;;;6.56;57.36;98141.33;125483;1104;103032;-69
2021/05/06 01:32:58;;;;;;;15.53;5.33;;;;;;;6.50;57.40;98141.79;125508;1104;103110;-70
2021/05/06 01:35:35;;;;;;;15.53;5.63;;;;;;;6.47;57.43;98145.48;125606;1104;103171;-70
2021/05/06 01:38:30;;;;;;;17.30;5.70;;;;;;;6.47;57.73;98144.64;125533;1104;102997;-68
2021/05/06 01:46:51;;;;;;;14.35;5.23;;;;;;;6.44;57.53;98147.50;125478;1104;103110;-69
2021/05/06 02:00:23;;;;;;;14.77;5.60;;;;;;;6.35;57.75;98162.18;125457;1098;103144;-70
2021/05/06 02:02:50;;;;;;;15.67;5.60;;;;;;;6.29;57.92;98163.46;125388;1104;103152;-68
2021/05/06 02:05:20;;;;;;;15.50;5.43;;;;;;;6.28;57.96;98177.62;125447;1100;103166;-68
2021/05/06 02:07:48;;;;;;;16.65;5.45;;;;;;;6.25;57.88;98176.05;125416;1104;102990;-70
2021/05/06 02:10:20;;;;;;;14.40;6.17;;;;;;;6.22;57.76;98173.62;125495;1104;102991;-69
2021/05/06 02:12:48;;;;;;;15.77;4.60;;;;;;;6.20;58.07;98178.16;125533;1104;103014;-68
2021/05/06 02:15:28;;;;;;;12.63;4.83;;;;;;;6.19;58.13;98186.17;125501;1100;103023;-69
2021/05/06 02:17:58;;;;;;;11.87;4.50;;;;;;;6.16;57.92;98192.52;125487;1104;103123;-68
2021/05/06 02:20:25;;;;;;;10.07;4.37;;;;;;;6.16;58.04;98197.80;125482;1104;103116;-67
2021/05/06 02:22:53;;;;;;;14.07;4.83;;;;;;;6.14;57.95;98202.34;125474;1104;103062;-68
2021/05/06 02:25:20;;;;;;;15.33;4.90;;;;;;;6.11;58.01;98205.19;125456;1100;103066;-68
2021/05/06 02:27:48;;;;;;;13.43;5.00;;;;;;;6.10;58.25;98214.92;125536;1104;102990;-68
2021/05/06 02:30:17;;;;;;;12.27;4.30;;;;;;;6.11;58.24;98218.39;125507;1100;103016;-68
2021/05/06 02:32:46;;;;;;;11.07;4.40;;;;;;;6.13;58.33;98224.41;125536;1104;103046;-67
2021/05/06 02:35:14;;;;;;;12.67;4.30;;;;;;;6.13;58.12;98236.75;125539;1104;102990;-68
2021/05/06 02:37:42;;;;;;;14.27;4.10;;;;;;;6.15;58.20;98240.14;125510;1104;102989;-66
2021/05/06 02:40:10;;;;;;;14.33;4.93;;;;;;;6.14;58.33;98241.09;125525;1104;103455;-67
2021/05/06 02:42:38;;;;;;;16.25;4.60;;;;;;;6.13;58.44;98249.95;125547;1099;103108;-68
2021/05/06 02:45:08;;;;;;;11.00;3.73;;;;;;;6.11;58.43;98253.55;125504;1098;102993;-68
2021/05/06 02:47:35;;;;;;;11.37;4.03;;;;;;;6.10;58.38;98254.52;125480;1105;103071;-67
2021/05/06 02:50:08;;;;;;;12.27;4.27;;;;;;;6.08;58.33;98264.34;125479;1097;103022;-67
2021/05/06 02:52:39;;;;;;;11.63;3.93;;;;;;;6.05;58.38;98261.05;125493;1104;103155;-66
2021/05/06 02:57:51;;;;;;;11.47;4.00;;;;;;;6.02;58.42;98266.52;125572;1104;103172;-69
2021/05/06 03:03:05;;;;;;;9.80;4.23;;;;;;;5.95;58.53;98266.90;125480;1104;103011;-66
2021/05/06 03:05:36;;;;;;;8.87;3.50;;;;;;;5.94;58.33;98274.94;125504;1104;102996;-67
2021/05/06 03:22:40;;;;;;;10.77;3.70;;;;;;;5.86;58.51;98296.56;125488;1099;103157;-67
2021/05/06 03:24:20;;;;;;;8.73;3.53;;;;;;;5.83;58.53;98301.19;125513;1099;103014;-68
2021/05/06 03:26:48;;;;;;;10.73;4.30;;;;;;;5.83;58.55;98304.69;125515;1100;102987;-69
2021/05/06 03:29:23;;;;;;;10.13;3.93;;;;;;;5.81;58.67;98312.69;125541;1104;103101;-68
2021/05/06 04:18:19;;;;;;;10.93;3.90;;;;;;;5.92;59.12;98388.52;125433;1100;103550;-68
2021/05/06 04:26:27;;;;;;;10.73;3.87;;;;;;;6.04;59.13;98407.20;125485;1104;103068;-67
2021/05/06 04:37:13;;;;;;;15.80;4.73;;;;;;;6.20;59.17;98418.47;125461;1100;103008;-68
2021/05/06 04:42:32;;;;;;;8.97;3.30;;;;;;;6.29;59.36;98419.66;125488;1100;103062;-70
2021/05/06 04:58:28;;;;;;;11.90;4.47;;;;;;;6.61;59.31;98415.84;125557;1100;103018;-69
2021/05/06 05:03:45;;;;;;;12.70;3.73;;;;;;;6.72;59.23;98423.03;125519;1099;103158;-70
2021/05/06 05:06:15;;;;;;;9.03;3.63;;;;;;;6.77;59.22;98426.22;125576;1104;102994;-69
2021/05/06 05:12:44;;;;;;;8.43;3.50;;;;;;;6.87;59.39;98434.37;125412;1104;103057;-69
2021/05/06 05:25:15;;;;;;;8.20;3.40;;;;;;;7.15;59.19;98438.63;125528;1100;103071;-69
2021/05/06 05:27:49;;;;;;;9.00;3.25;;;;;;;7.20;59.38;98446.23;125561;1104;103112;-70
2021/05/06 05:30:17;;;;;;;9.77;3.00;;;;;;;7.25;59.37;98444.98;125449;1104;103129;-68
2021/05/06 05:33:08;;;;;;;8.00;2.83;;;;;;;7.33;59.01;98446.26;125507;1100;103083;-69
2021/05/06 05:35:42;;;;;;;9.67;3.30;;;;;;;7.38;59.09;98454.70;125474;1104;103036;-70
2021/05/06 05:38:26;;;;;;;12.53;2.90;;;;;;;7.41;59.36;98455.34;125407;1104;103066;-69
2021/05/06 05:56:46;;;;;;;10.15;3.10;;;;;;;7.70;58.79;98460.39;125541;1104;103091;-69
2021/05/06 05:59:13;;;;;;;8.13;2.40;;;;;;;7.76;58.79;98474.98;125481;1104;103105;-69
2021/05/06 06:01:40;;;;;;;9.00;2.80;;;;;;;7.81;58.77;98459.62;125335;1104;103149;-70
2021/05/06 06:04:08;;;;;;;8.93;2.77;;;;;;;7.86;58.96;98475.20;125478;1104;103184;-69
2021/05/06 06:06:37;;;;;;;5.40;2.80;;;;;;;7.90;58.87;98453.67;125512;1098;103014;-69
2021/05/06 06:09:05;;;;;;;10.90;3.50;;;;;;;7.97;58.88;98469.95;125524;1098;103017;-69
2021/05/06 06:11:33;;;;;;;8.57;2.47;;;;;;;8.01;58.30;98465.30;125560;1104;103020;-69
2021/05/06 06:14:05;;;;;;;3.43;2.00;;;;;;;8.08;58.57;98481.59;125487;1104;103126;-69
2021/05/06 06:16:35;;;;;;;11.20;3.20;;;;;;;8.14;58.18;98467.91;125512;1098;103075;-68
2021/05/06 06:19:04;;;;;;;9.65;2.80;;;;;;;8.16;58.40;98463.34;125597;1100;103089;-69
2021/05/06 06:21:40;;;;;;;9.07;2.77;;;;;;;8.19;58.62;98471.08;125572;1100;102997;-70
2021/05/06 06:24:08;;;;;;;4.90;2.30;;;;;;;8.20;58.06;98465.65;125560;1104;103020;-69
2021/05/06 06:26:35;;;;;;;4.25;2.10;;;;;;;8.28;58.37;98477.50;125389;1104;103116;-70
2021/05/06 06:29:08;;;;;;;9.25;2.30;;;;;;;8.37;57.67;98473.32;125412;1100;103151;-70
2021/05/06 06:34:07;;;;;;;5.83;2.30;;;;;;;8.46;57.97;98465.56;125398;1104;103075;-70
2021/05/06 06:36:35;;;;;;;5.43;2.10;;;;;;;8.52;57.58;98471.41;125540;1104;103470;-71
2021/05/06 06:39:04;;;;;;;5.67;2.20;;;;;;;8.61;57.60;98468.91;125534;1104;103142;-70
2021/05/06 06:41:32;;;;;;;4.23;2.40;;;;;;;8.69;57.93;98465.68;125445;1104;103145;-69
2021/05/06 06:44:01;;;;;;;4.40;1.97;;;;;;;8.77;57.72;98481.01;125513;1104;103591;-69
2021/05/06 06:46:29;;;;;;;6.90;2.40;;;;;;;8.79;57.52;98477.30;125550;1104;103091;-69
2021/05/06 06:49:00;;;;;;;7.17;2.00;;;;;;;8.83;57.29;98477.07;125509;1100;103455;-69
2021/05/06 06:51:28;;;;;;;7.85;2.75;;;;;;;8.89;57.66;98469.48;125528;1104;103113;-69
2021/05/06 06:53:56;;;;;;;3.43;1.80;;;;;;;8.98;57.17;98483.02;125500;1099;102918;-70
2021/05/06 06:56:23;;;;;;;9.03;2.50;;;;;;;9.09;57.12;98475.94;125504;1104;103129;-70
2021/05/06 06:58:52;;;;;;;7.20;2.07;;;;;;;9.24;57.24;98467.77;125539;1104;103122;-71
2021/05/06 07:01:20;;;;;;;6.33;1.87;;;;;;;9.26;57.36;98476.47;125515;1100;102991;-69
2021/05/06 07:03:48;;;;;;;3.83;1.80;;;;;;;9.22;57.26;98472.36;125607;1104;103660;-70
2021/05/06 07:06:15;;;;;;;4.87;2.20;;;;;;;9.16;56.75;98481.64;125490;1104;102994;-70
2021/05/06 07:08:44;;;;;;;5.67;2.33;;;;;;;9.84;56.32;98480.83;125538;1104;102985;-71
2021/05/06 07:11:11;;;;;;;5.10;2.03;;;;;;;9.78;56.35;98491.97;125469;1100;103018;-71
2021/05/06 07:13:39;;;;;;;3.87;2.00;;;;;;;11.73;54.99;98483.09;125509;1104;103086;-69
2021/05/06 07:16:08;;;;;;;7.70;2.57;;;;;;;13.75;54.71;98475.63;125444;1104;103086;-70
2021/05/06 07:18:36;;;;;;;6.87;2.30;;;;;;;15.50;54.41;98477.19;125471;1104;102818;-71
2021/05/06 07:21:06;;;;;;;4.10;1.43;;;;;;;17.39;54.55;98467.13;125443;1104;103015;-71
2021/05/06 07:23:35;;;;;;;2.73;1.60;;;;;;;17.66;55.05;98468.59;126381;1104;103010;-71
2021/05/06 07:26:06;;;;;;;6.93;2.53;;;;;;;16.84;56.46;98465.95;125477;1104;103466;-71
2021/05/06 07:28:40;;;;;;;6.57;1.90;;;;;;;18.35;54.86;98486.02;126667;1104;103158;-69
2021/05/06 07:31:13;;;;;;;5.27;2.20;;;;;;;19.38;53.64;98474.19;125385;1104;102982;-70
2021/05/06 07:33:46;;;;;;;4.23;1.83;;;;;;;20.64;53.49;98465.27;125598;1098;103088;-70
2021/05/06 07:36:19;;;;;;;3.80;1.97;;;;;;;21.39;53.00;98470.36;125613;1104;103065;-70
2021/05/06 07:38:51;;;;;;;4.03;1.80;;;;;;;22.25;53.03;98463.78;125359;1104;103080;-70
2021/05/06 07:41:22;;;;;;;6.03;2.17;;;;;;;22.78;52.54;98456.06;125415;1104;103048;-70
2021/05/06 07:43:53;;;;;;;5.77;2.70;;;;;;;23.24;52.88;98457.98;125520;1104;103575;-70
2021/05/06 07:46:24;;;;;;;6.77;2.80;;;;;;;22.08;53.72;98457.88;125389;1104;103126;-71
2021/05/06 07:48:56;;;;;;;4.43;1.90;;;;;;;21.96;53.41;98471.16;125591;1104;103055;-72
2021/05/06 07:51:27;;;;;;;4.93;2.33;;;;;;;22.92;52.47;98451.49;125518;1105;103148;-73
2021/05/06 07:54:05;;;;;;;5.87;2.33;;;;;;;22.74;53.03;98459.19;125572;1104;102994;-70
2021/05/06 07:56:38;;;;;;;7.73;2.57;;;;;;;22.37;53.04;98449.66;125306;1100;103264;-69
2021/05/06 07:59:05;;;;;;;5.37;1.93;;;;;;;21.41;52.24;98463.70;125326;1100;103204;-69
2021/05/06 08:01:33;;;;;;;6.40;2.00;;;;;;;20.59;51.36;98460.45;125338;1100;103087;-69
2021/05/06 08:04:02;;;;;;;8.30;2.00;;;;;;;20.32;51.91;98459.31;125388;1099;103084;-68
2021/05/06 08:06:30;;;;;;;5.25;2.40;;;;;;;19.65;52.32;98467.34;125489;1100;103505;-70
2021/05/06 08:08:57;;;;;;;4.83;1.80;;;;;;;19.35;51.59;98470.01;125229;1104;103139;-68
2021/05/06 08:11:25;;;;;;;4.87;1.93;;;;;;;20.00;50.74;98458.72;125314;1104;103065;-69
2021/05/06 08:13:52;;;;;;;3.57;1.97;;;;;;;19.74;50.12;98462.72;125316;1104;102986;-69
2021/05/06 08:16:19;;;;;;;6.17;2.27;;;;;;;19.44;50.15;98471.61;125421;1104;103018;-69
2021/05/06 08:18:47;;;;;;;5.00;1.90;;;;;;;19.97;49.98;98459.92;125394;1100;102994;-70
2021/05/06 08:21:14;;;;;;;6.53;2.10;;;;;;;20.41;49.69;98460.88;125583;1100;103482;-71
2021/05/06 08:23:43;;;;;;;3.87;1.80;;;;;;;20.91;49.45;98469.12;125503;1104;103009;-70
2021/05/06 08:26:10;;;;;;;6.50;2.27;;;;;;;21.26;49.50;98458.39;125504;1104;103014;-69
2021/05/06 08:28:48;;;;;;;4.70;1.80;;;;;;;21.66;48.64;98457.88;125504;1104;103151;-70
2021/05/06 08:31:15;;;;;;;4.67;1.80;;;;;;;22.04;49.02;98456.61;125491;1099;103435;-70
2021/05/06 08:33:43;;;;;;;3.97;1.90;;;;;;;21.88;48.60;98456.97;125499;1100;103085;-69
2021/05/06 08:36:11;;;;;;;3.07;1.33;;;;;;;21.22;48.33;98462.52;125591;1104;103016;-74
2021/05/06 08:38:39;;;;;;;4.53;1.60;;;;;;;20.70;47.67;98469.91;125543;1104;103032;-70
2021/05/06 08:41:07;;;;;;;4.37;1.33;;;;;;;20.52;47.30;98463.09;125471;1104;103062;-69
2021/05/06 08:43:37;;;;;;;6.57;1.40;;;;;;;20.19;47.16;98468.10;125551;1104;103050;-68
2021/05/06 08:46:05;;;;;;;4.43;1.50;;;;;;;20.04;46.65;98460.84;125327;1104;103158;-72
2021/05/06 08:48:53;;;;;;;7.40;1.80;;;;;;;19.45;46.28;98470.59;125574;1104;103069;-69
2021/05/06 08:51:22;;;;;;;3.20;1.80;;;;;;;19.48;46.32;98463.98;125518;1104;102969;-69
2021/05/06 08:53:50;;;;;;;3.30;1.30;;;;;;;20.10;45.86;98466.52;125551;1104;103110;-71
2021/05/06 08:56:18;;;;;;;2.47;1.43;;;;;;;20.91;46.00;98466.41;125500;1104;103498;-69
2021/05/06 08:58:45;;;;;;;5.23;1.37;;;;;;;21.56;46.00;98460.06;125516;1104;103166;-69
2021/05/06 09:01:14;;;;;;;2.80;1.70;;;;;;;21.84;45.19;98456.51;125500;1104;103011;-70
2021/05/06 09:03:42;;;;;;;4.03;1.60;;;;;;;22.00;45.00;98441.83;125509;1100;103065;-71
2021/05/06 09:06:18;;;;;;;5.57;2.10;;;;;;;22.20;45.03;98454.61;125521;1100;103041;-71
2021/05/06 09:08:49;;;;;;;5.30;1.50;;;;;;;21.80;45.25;98450.67;125554;1104;103091;-69
2021/05/06 09:11:31;;;;;;;5.40;1.43;;;;;;;21.58;44.83;98462.59;125525;1104;103152;-68
2021/05/06 09:14:06;;;;;;;4.37;1.63;;;;;;;21.83;44.69;98444.02;125492;1104;102984;-70
2021/05/06 09:16:44;;;;;;;2.63;1.43;;;;;;;22.25;44.33;98444.83;125541;1104;103084;-69
2021/05/06 09:19:17;;;;;;;8.13;2.20;;;;;;;22.33;44.00;98443.83;125586;1104;103087;-71
2021/05/06 09:21:46;;;;;;;4.23;1.67;;;;;;;22.55;44.15;98432.86;125588;1100;103006;-69
2021/05/06 09:24:20;;;;;;;3.13;1.53;;;;;;;22.49;43.99;98441.80;125532;1104;103016;-69
2021/05/06 09:26:51;;;;;;;3.30;1.80;;;;;;;21.89;42.79;98448.63;125522;1104;103014;-69
2021/05/06 09:29:32;;;;;;;4.27;1.50;;;;;;;21.49;42.36;98426.72;125476;1104;102990;-70
2021/05/06 09:32:14;;;;;;;3.37;1.33;;;;;;;21.22;42.27;98430.06;125508;1104;103086;-70
2021/05/06 09:34:49;;;;;;;3.00;1.50;;;;;;;21.47;42.36;98424.22;125468;1104;103080;-70
2021/05/06 09:37:30;;;;;;;2.43;1.07;;;;;;;21.53;42.06;98433.41;125558;1099;103170;-70
2021/05/06 09:40:06;;;;;;;2.33;1.50;;;;;;;21.44;41.59;98431.88;125553;1104;103055;-68
2021/05/06 09:42:47;;;;;;;6.80;2.37;;;;;;;21.42;42.10;98432.91;125433;1104;103002;-69
2021/05/06 09:45:26;;;;;;;2.40;1.50;;;;;;;21.06;41.67;98447.41;125543;1104;103083;-67
2021/05/06 09:48:09;;;;;;;6.20;1.47;;;;;;;20.53;41.37;98443.16;125455;1104;103037;-70
2021/05/06 09:50:39;;;;;;;3.93;1.63;;;;;;;20.06;41.52;98450.70;125519;1104;103285;-71
2021/05/06 09:53:12;;;;;;;2.47;1.53;;;;;;;19.49;41.00;98444.08;125519;1099;103089;-69
2021/05/06 09:55:41;;;;;;;4.77;1.70;;;;;;;18.80;41.06;98448.53;125498;1104;103062;-69
2021/05/06 09:58:24;;;;;;;5.33;1.30;;;;;;;18.57;40.81;98451.22;125503;1104;103062;-71
2021/05/06 10:00:52;;;;;;;3.00;1.47;;;;;;;18.19;40.87;98451.10;125539;1104;103083;-72
2021/05/06 10:03:24;;;;;;;2.50;1.40;;;;;;;17.78;40.51;98450.23;125478;1104;103122;-69
2021/05/06 10:05:52;;;;;;;2.85;1.50;;;;;;;17.39;40.51;98446.48;125549;1104;103065;-68
2021/05/06 10:08:33;;;;;;;3.80;1.50;;;;;;;17.15;40.29;98447.36;125497;1104;103129;-69
2021/05/06 10:11:27;;;;;;;4.03;1.27;;;;;;;17.17;39.75;98441.80;125536;1104;102997;-70
2021/05/06 10:13:57;;;;;;;5.23;1.73;;;;;;;16.73;39.63;98446.47;125551;1100;103073;-70
2021/05/06 10:16:26;;;;;;;5.53;1.13;;;;;;;16.51;39.86;98450.63;125497;1104;103196;-69
2021/05/06 10:18:54;;;;;;;4.50;1.45;;;;;;;16.35;39.44;98443.39;125602;1104;103107;-69
2021/05/06 10:21:22;;;;;;;2.13;1.20;;;;;;;16.21;39.48;98451.09;125562;1104;103077;-70
2021/05/06 10:23:53;;;;;;;2.00;0.83;;;;;;;16.20;39.40;98444.05;125515;1104;103123;-70
2021/05/06 10:26:24;;;;;;;3.47;1.40;;;;;;;16.08;39.32;98466.80;125556;1100;103131;-70
2021/05/06 10:28:52;;;;;;;2.63;1.40;;;;;;;15.78;38.77;98458.27;125551;1104;103093;-70
2021/05/06 10:31:21;;;;;;;3.40;1.53;;;;;;;15.44;38.76;98457.23;125583;1104;102997;-72
2021/05/06 10:33:50;;;;;;;3.93;1.30;;;;;;;15.30;38.81;98450.62;125611;1100;103045;-69
2021/05/06 10:36:18;;;;;;;3.90;1.57;;;;;;;15.18;38.88;98452.72;125533;1104;103014;-70
2021/05/06 10:38:46;;;;;;;2.70;1.70;;;;;;;15.06;38.83;98450.45;125582;1104;103171;-70
2021/05/06 10:41:22;;;;;;;1.90;1.23;;;;;;;15.08;38.76;98448.46;125521;1104;103062;-69
2021/05/06 10:43:56;;;;;;;5.67;1.90;;;;;;;15.02;38.70;98456.12;125525;1100;102987;-73
2021/05/06 10:47:00;;;;;;;4.17;1.40;;;;;;;15.06;38.92;98448.60;125508;1100;103016;-71
2021/05/06 10:49:30;;;;;;;1.93;1.30;;;;;;;15.21;38.85;98443.52;125498;1099;103016;-69
2021/05/06 10:52:07;;;;;;;4.27;1.40;;;;;;;15.35;38.71;98442.09;125552;1098;103058;-70
2021/05/06 10:54:41;;;;;;;2.67;1.27;;;;;;;15.39;38.64;98443.47;125462;1104;103194;-70
2021/05/06 10:57:09;;;;;;;1.73;1.00;;;;;;;15.37;38.76;98444.63;125503;1099;103109;-72
2021/05/06 10:59:46;;;;;;;2.97;1.07;;;;;;;15.27;38.19;98444.75;125554;1099;103074;-69
2021/05/06 11:02:38;;;;;;;4.93;1.40;;;;;;;15.13;38.27;98449.66;125551;1100;102972;-70
2021/05/06 11:05:29;;;;;;;3.63;1.07;;;;;;;15.10;38.40;98441.94;125475;1100;103162;-72
2021/05/06 11:08:02;;;;;;;2.97;1.10;;;;;;;15.22;38.48;98444.38;125497;1104;102985;-71
2021/05/06 11:10:47;;;;;;;6.47;1.80;;;;;;;15.38;38.34;98432.92;125510;1098;103491;-72
2021/05/06 11:13:16;;;;;;;1.40;1.10;;;;;;;15.50;38.22;98438.84;125474;1100;103084;-71
2021/05/06 11:15:44;;;;;;;2.40;1.27;;;;;;;15.51;38.00;98444.03;126391;1104;102992;-73
2021/05/06 11:18:32;;;;;;;3.53;1.20;;;;;;;15.45;37.86;98450.88;125565;1104;103495;-70
2021/05/06 11:21:01;;;;;;;3.50;1.17;;;;;;;15.41;37.95;98448.68;125512;1104;103435;-70
2021/05/06 11:23:31;;;;;;;1.97;0.97;;;;;;;15.41;37.65;98448.68;125565;1104;103046;-70
2021/05/06 11:26:09;;;;;;;2.17;1.40;;;;;;;15.42;37.53;98451.19;125506;1104;103025;-70
2021/05/06 11:28:36;;;;;;;3.10;1.20;;;;;;;15.41;37.63;98446.00;125538;1104;101767;-69
2021/05/06 11:31:03;;;;;;;4.27;1.10;;;;;;;15.46;37.71;98457.92;125523;1104;103014;-68
2021/05/06 11:33:31;;;;;;;1.77;0.70;;;;;;;15.41;37.36;98451.36;125530;1104;103202;-70
2021/05/06 11:36:11;;;;;;;3.50;1.20;;;;;;;15.26;37.15;98443.06;125554;1104;103051;-72
2021/05/06 11:38:51;;;;;;;5.43;1.50;;;;;;;15.14;37.36;98445.98;125545;1100;103085;-71
2021/05/06 11:41:34;;;;;;;2.27;1.07;;;;;;;15.20;37.35;98443.69;125614;1104;103110;-71
2021/05/06 11:44:07;;;;;;;2.93;0.90;;;;;;;15.11;37.06;98437.41;125529;1099;103084;-70
2021/05/06 11:46:39;;;;;;;3.73;1.67;;;;;;;15.14;37.17;98434.42;125523;1100;103067;-69
2021/05/06 11:49:17;;;;;;;3.47;1.20;;;;;;;15.12;37.09;98442.63;125607;1104;103086;-70
2021/05/06 11:51:47;;;;;;;2.50;1.20;;;;;;;15.11;36.96;98443.63;125549;1104;103439;-70
2021/05/06 11:54:20;;;;;;;4.80;1.57;;;;;;;15.09;36.80;98440.26;125551;1104;103069;-70
2021/05/06 11:56:57;;;;;;;6.45;1.10;;;;;;;15.10;36.91;98439.26;125530;1100;103086;-70
2021/05/06 11:59:28;;;;;;;5.67;1.40;;;;;;;15.09;36.78;98434.05;125523;1104;103102;-71
2021/05/06 12:01:58;;;;;;;2.43;1.00;;;;;;;15.16;36.89;98435.10;125529;1104;103086;-70
2021/05/06 12:04:34;;;;;;;1.30;1.00;;;;;;;15.23;36.87;98446.05;125468;1104;103086;-70
2021/05/06 12:07:20;;;;;;;7.53;1.47;;;;;;;15.26;36.68;98443.06;125551;1104;103093;-69
2021/05/06 12:09:49;;;;;;;4.57;0.93;;;;;;;15.23;36.55;98443.38;125481;1099;103087;-70
2021/05/06 12:12:25;;;;;;;3.67;1.53;;;;;;;15.16;36.50;98435.10;125515;1104;103092;-70
2021/05/06 12:14:58;;;;;;;5.93;1.30;;;;;;;15.15;36.57;98426.24;125581;1104;103016;-71
2021/05/06 12:17:26;;;;;;;2.50;1.10;;;;;;;15.14;36.29;98416.52;125604;1104;102987;-70
2021/05/06 12:19:53;;;;;;;2.00;1.03;;;;;;;15.05;36.33;98414.78;125519;1100;103087;-70
2021/05/06 12:22:20;;;;;;;3.45;1.20;;;;;;;15.06;36.32;98426.34;125530;1104;103564;-69
2021/05/06 12:24:54;;;;;;;1.30;1.17;;;;;;;15.01;36.30;98421.44;125508;1100;103080;-71
2021/05/06 12:27:29;;;;;;;2.53;1.50;;;;;;;14.99;36.39;98423.44;125583;1104;102991;-71
2021/05/06 12:29:56;;;;;;;3.73;1.20;;;;;;;14.99;36.24;98418.08;125480;1104;103066;-71
2021/05/06 12:32:33;;;;;;;1.80;1.20;;;;;;;14.94;36.17;98417.70;125576;1104;103062;-71
2021/05/06 12:35:03;;;;;;;2.73;1.17;;;;;;;14.89;35.96;98420.86;125587;1100;103011;-70
2021/05/06 12:37:33;;;;;;;5.50;1.40;;;;;;;14.87;36.00;98418.35;125528;1105;103097;-71
2021/05/06 12:40:03;;;;;;;1.77;1.13;;;;;;;14.87;36.09;98417.49;125563;1100;103026;-71
2021/05/06 12:42:34;;;;;;;2.07;1.40;;;;;;;14.82;36.04;98415.30;125552;1104;103090;-71
2021/05/06 12:45:12;;;;;;;5.80;1.93;;;;;;;14.75;36.07;98408.88;125533;1100;103062;-71
2021/05/06 12:47:50;;;;;;;4.10;1.43;;;;;;;14.74;35.83;98415.22;125558;1104;103014;-72
2021/05/06 12:50:29;;;;;;;4.50;1.10;;;;;;;14.70;35.91;98411.17;125576;1104;103130;-70
2021/05/06 12:53:05;;;;;;;3.13;1.20;;;;;;;14.78;36.00;98407.70;125540;1104;102982;-71
2021/05/06 12:55:42;;;;;;;3.10;1.33;;;;;;;14.78;35.95;98402.35;125496;1100;103532;-72
2021/05/06 12:58:14;;;;;;;2.83;1.30;;;;;;;14.77;35.83;98404.20;125537;1104;103014;-70
2021/05/06 13:00:44;;;;;;;1.50;1.10;;;;;;;14.75;36.06;98390.13;125526;1098;103099;-69
2021/05/06 13:03:16;;;;;;;1.60;1.10;;;;;;;14.71;35.89;98404.81;125489;1104;103060;-71
2021/05/06 13:05:46;;;;;;;1.90;1.33;;;;;;;14.63;35.63;98399.36;125535;1098;103120;-70
2021/05/06 13:08:15;;;;;;;4.40;1.33;;;;;;;14.54;35.48;98395.78;125516;1104;102987;-70
2021/05/06 13:10:47;;;;;;;2.73;1.10;;;;;;;14.48;35.61;98404.41;125465;1104;103102;-70
2021/05/06 13:13:42;;;;;;;4.07;1.33;;;;;;;14.50;35.63;98387.20;125559;1104;103065;-70
2021/05/06 13:16:11;;;;;;;3.73;1.50;;;;;;;14.49;35.51;98393.55;125470;1100;103193;-70
2021/05/06 13:18:39;;;;;;;4.45;1.40;;;;;;;14.44;35.12;98383.31;125529;1099;103011;-71
2021/05/06 13:21:22;;;;;;;2.83;0.90;;;;;;;14.39;34.83;98374.91;125509;1104;103027;-71
2021/05/06 13:23:53;;;;;;;4.73;1.67;;;;;;;14.34;35.37;98377.19;125571;1104;103165;-71
2021/05/06 13:26:35;;;;;;;6.05;2.30;;;;;;;14.43;35.14;98378.95;125525;1104;103018;-72
2021/05/06 13:29:09;;;;;;;2.85;1.50;;;;;;;14.48;35.16;98380.33;125514;1104;103142;-70
2021/05/06 13:31:38;;;;;;;4.00;1.20;;;;;;;14.47;34.95;98379.48;125557;1104;103458;-69
2021/05/06 13:34:13;;;;;;;19.73;8.33;;;;;;;14.51;35.23;98374.67;125542;1104;103020;-71
2021/05/06 13:36:43;;;;;;;4.85;1.85;;;;;;;14.54;35.04;98372.52;125461;1103;102996;-72
2021/05/06 13:39:13;;;;;;;2.03;0.93;;;;;;;14.51;34.77;98370.15;125482;1104;103191;-71
2021/05/06 13:41:47;;;;;;;4.47;1.43;;;;;;;14.48;35.10;98361.60;125486;1104;103023;-70
2021/05/06 13:44:18;;;;;;;;;;;;;;;14.50;34.99;98367.64;125548;1104;102993;-72
2021/05/06 13:46:55;;;;;;;3.50;1.20;;;;;;;14.46;34.99;98367.13;125502;1098;103011;-71
2021/05/06 13:49:29;;;;;;;3.07;1.20;;;;;;;14.41;35.05;98358.71;125478;1104;103117;-71
2021/05/06 13:51:58;;;;;;;3.40;1.40;;;;;;;14.44;35.10;98353.05;125540;1104;103250;-72
2021/05/06 13:54:27;;;;;;;4.90;1.77;;;;;;;14.51;34.92;98354.09;125473;1098;103094;-72
2021/05/06 13:56:56;;;;;;;4.00;1.43;;;;;;;14.58;35.13;98351.66;125523;1104;103086;-70
2021/05/06 13:59:23;;;;;;;3.30;1.87;;;;;;;14.65;35.14;98341.16;125985;1098;102987;-73
2021/05/06 14:01:56;;;;;;;2.67;1.40;;;;;;;14.67;34.92;98350.70;125510;1100;103088;-71
2021/05/06 14:04:24;;;;;;;1.95;1.30;;;;;;;14.65;35.04;98347.38;125520;1100;103112;-70
2021/05/06 14:06:53;;;;;;;4.00;1.10;;;;;;;14.70;34.91;98341.58;125547;1104;103112;-71
2021/05/06 14:09:20;;;;;;;1.47;0.90;;;;;;;14.68;34.94;98347.03;125524;1099;103086;-72
2021/05/06 14:11:50;;;;;;;4.40;1.83;;;;;;;14.67;34.84;98350.70;125498;1104;103077;-71
2021/05/06 14:14:19;;;;;;;2.50;1.40;;;;;;;14.65;34.79;98339.34;125543;1100;103019;-70
2021/05/06 14:16:47;;;;;;;2.87;1.57;;;;;;;14.65;34.79;98350.05;125568;1104;103149;-71
2021/05/06 14:19:15;;;;;;;2.47;1.17;;;;;;;14.64;34.96;98343.02;125499;1104;103087;-71
2021/05/06 14:21:48;;;;;;;1.63;1.00;;;;;;;14.65;34.92;98346.52;126200;1104;103095;-72
2021/05/06 14:24:17;;;;;;;3.90;1.80;;;;;;;14.64;35.10;98339.48;125591;1104;103088;-70
2021/05/06 14:26:47;;;;;;;3.03;1.17;;;;;;;14.67;34.62;98347.20;125580;1104;103019;-72
2021/05/06 14:29:19;;;;;;;3.60;1.37;;;;;;;14.62;34.80;98339.66;125504;1104;103199;-71
2021/05/06 14:31:47;;;;;;;6.07;2.00;;;;;;;14.59;34.80;98337.28;125522;1104;103014;-72
2021/05/06 14:34:15;;;;;;;4.80;1.87;;;;;;;14.57;34.78;98336.59;125620;1104;102989;-70
2021/05/06 14:36:43;;;;;;;3.67;1.90;;;;;;;14.48;34.75;98334.84;125575;1099;103448;-71
2021/05/06 14:39:12;;;;;;;4.53;1.70;;;;;;;14.44;34.69;98339.68;125647;1100;103114;-70
2021/05/06 14:41:42;;;;;;;3.95;1.70;;;;;;;14.44;34.75;98335.16;125605;1104;102987;-70
2021/05/06 14:44:10;;;;;;;5.17;1.87;;;;;;;14.47;34.92;98330.48;125551;1100;103074;-70
2021/05/06 14:46:37;;;;;;;3.80;1.20;;;;;;;14.55;34.84;98330.56;125507;1104;103122;-71
2021/05/06 14:49:06;;;;;;;1.83;1.17;;;;;;;14.63;34.77;98327.09;125566;1104;103126;-70
2021/05/06 14:51:33;;;;;;;6.03;1.60;;;;;;;14.72;34.98;98331.55;125592;1104;103065;-71
2021/05/06 14:54:01;;;;;;;6.57;1.77;;;;;;;14.79;34.99;98321.91;125490;1098;103071;-71
2021/05/06 14:56:28;;;;;;;2.60;1.23;;;;;;;14.80;34.82;98322.73;125510;1104;103154;-71
2021/05/06 14:58:56;;;;;;;3.25;1.35;;;;;;;14.79;34.87;98311.20;125547;1104;103115;-71
2021/05/06 15:01:25;;;;;;;5.40;2.27;;;;;;;14.79;34.74;98315.70;125615;1104;103069;-71
2021/05/06 15:03:53;;;;;;;9.07;1.63;;;;;;;14.74;34.83;98319.67;125612;1104;102986;-71
2021/05/06 15:06:21;;;;;;;4.95;2.00;;;;;;;14.68;34.95;98317.59;125554;1104;103101;-71